createdAt,value
2017-10-03T00:05:59.000Z,1004.411
2017-10-03T00:15:59.000Z,1004.497
2017-10-03T00:25:59.000Z,1004.363
2017-10-03T00:35:59.000Z,1004.321
2017-10-03T00:45:59.000Z,1004.359
2017-10-03T00:55:59.000Z,1004.386
2017-10-03T01:05:59.000Z,1004.305
2017-10-03T01:15:59.000Z,1004.306
2017-10-03T01:25:59.000Z,1004.268
2017-10-03T01:35:59.000Z,1004.334
2017-10-03T01:45:59.000Z,1004.32
2017-10-03T01:55:59.000Z,1004.312
2017-10-03T02:05:59.000Z,1004.313
2017-10-03T02:15:59.000Z,1004.256
2017-10-03T02:25:59.000Z,1004.304
2017-10-03T02:35:59.000Z,1004.315
2017-10-03T02:45:59.000Z,1004.372
2017-10-03T02:55:59.000Z,1004.419
2017-10-03T03:05:59.000Z,1004.451
2017-10-03T03:15:59.000Z,1004.475
2017-10-03T03:25:59.000Z,1004.572
2017-10-03T03:35:59.000Z,1004.595
2017-10-03T03:45:59.000Z,1004.611
2017-10-03T03:55:59.000Z,1004.592
2017-10-03T04:05:59.000Z,1004.64
2017-10-03T04:15:59.000Z,1004.732
2017-10-03T04:25:59.000Z,1004.848
2017-10-03T04:36:00.000Z,1004.962
2017-10-03T04:46:00.000Z,1005.108
2017-10-03T04:56:00.000Z,1005.206
2017-10-03T05:06:00.000Z,1005.251
2017-10-03T05:16:00.000Z,1005.376
2017-10-03T05:26:00.000Z,1005.521
2017-10-03T05:36:00.000Z,1005.621
2017-10-03T05:46:00.000Z,1005.701
2017-10-03T05:56:00.000Z,1005.813
2017-10-03T06:06:00.000Z,1006.03
2017-10-03T06:16:00.000Z,1006.133
2017-10-03T06:26:00.000Z,1006.286
2017-10-03T06:36:00.000Z,1006.483
2017-10-03T06:46:00.000Z,1006.466
2017-10-03T06:56:00.000Z,1006.675
2017-10-03T07:06:00.000Z,1006.865
2017-10-03T07:16:00.000Z,1007.097
2017-10-03T07:26:00.000Z,1007.235
2017-10-03T07:36:00.000Z,1007.38
2017-10-03T07:46:00.000Z,1007.533
2017-10-03T07:56:00.000Z,1007.686
2017-10-03T08:06:00.000Z,1007.842
2017-10-03T08:16:00.000Z,1007.907
2017-10-03T08:26:00.000Z,1008.136
2017-10-03T08:36:00.000Z,1008.432
2017-10-03T08:46:00.000Z,1008.514
2017-10-03T08:56:00.000Z,1008.651
2017-10-03T09:06:00.000Z,1008.736
2017-10-03T09:16:00.000Z,1008.831
2017-10-03T09:26:00.000Z,1009.01
2017-10-03T09:36:00.000Z,1009.131
2017-10-03T09:46:00.000Z,1009.222
2017-10-03T09:56:00.000Z,1009.377
2017-10-03T10:06:00.000Z,1009.455
2017-10-03T10:16:00.000Z,1009.462
2017-10-03T10:26:00.000Z,1009.666
2017-10-03T10:36:00.000Z,1009.769
2017-10-03T10:46:00.000Z,1009.967
2017-10-03T10:56:00.000Z,1010.056
2017-10-03T11:06:00.000Z,1010.085
2017-10-03T11:16:00.000Z,1010.191
2017-10-03T11:26:00.000Z,1010.266
2017-10-03T11:36:00.000Z,1010.425
2017-10-03T11:46:00.000Z,1010.46
2017-10-03T11:56:01.000Z,1010.623
2017-10-03T12:06:01.000Z,1010.675
2017-10-03T12:16:00.000Z,1010.785
2017-10-03T12:26:01.000Z,1010.994
2017-10-03T12:36:01.000Z,1010.937
2017-10-03T12:46:01.000Z,1011.006
2017-10-03T12:56:01.000Z,1011.059
2017-10-03T13:06:01.000Z,1011.006
2017-10-03T13:16:01.000Z,1010.978
2017-10-03T13:26:01.000Z,1011.179
2017-10-03T13:36:01.000Z,1011.42
2017-10-03T13:46:01.000Z,1011.529
2017-10-03T13:56:01.000Z,1011.617
2017-10-03T14:06:01.000Z,1011.561
2017-10-03T14:16:01.000Z,1011.696
2017-10-03T14:26:01.000Z,1011.895
2017-10-03T14:36:01.000Z,1012.059
2017-10-03T14:46:01.000Z,1012.132
2017-10-03T14:56:01.000Z,1012.198
2017-10-03T15:06:01.000Z,1012.288
2017-10-03T15:26:01.000Z,1012.508
2017-10-03T15:36:01.000Z,1012.584
2017-10-03T15:46:01.000Z,1012.717
2017-10-03T15:56:01.000Z,1012.876
2017-10-03T16:06:01.000Z,1012.879
2017-10-03T16:16:01.000Z,1012.846
2017-10-03T16:26:01.000Z,1012.903
2017-10-03T16:36:01.000Z,1013.159
2017-10-03T16:46:01.000Z,1013.241
2017-10-03T16:56:01.000Z,1013.318
2017-10-03T17:06:01.000Z,1013.478
2017-10-03T17:16:01.000Z,1013.603
2017-10-03T17:26:01.000Z,1013.694
2017-10-03T17:36:01.000Z,1013.779
2017-10-03T17:46:01.000Z,1013.929
2017-10-03T17:56:01.000Z,1014.103
2017-10-03T18:06:01.000Z,1014.063
2017-10-03T18:16:01.000Z,1014.162
2017-10-03T18:26:01.000Z,1014.388
2017-10-03T18:36:01.000Z,1014.478
2017-10-03T18:46:01.000Z,1014.606
2017-10-03T18:56:01.000Z,1014.711
2017-10-03T19:06:01.000Z,1014.755
2017-10-03T19:16:01.000Z,1014.8
2017-10-03T19:26:01.000Z,1014.91
2017-10-03T19:36:01.000Z,1015.055
2017-10-03T19:46:01.000Z,1015.011
2017-10-03T19:56:02.000Z,1015.113
2017-10-03T20:06:02.000Z,1015.177
2017-10-03T20:16:02.000Z,1015.237
2017-10-03T20:26:02.000Z,1015.287
2017-10-03T20:36:02.000Z,1015.298
2017-10-03T20:46:02.000Z,1015.217
2017-10-03T20:56:02.000Z,1015.185
2017-10-03T21:06:02.000Z,1015.162
2017-10-03T21:16:02.000Z,1015.237
2017-10-03T21:26:02.000Z,1015.194
2017-10-03T21:36:02.000Z,1015.171
2017-10-03T21:46:02.000Z,1015.083
2017-10-03T21:56:02.000Z,1015.267
2017-10-03T22:06:02.000Z,1015.381
2017-10-03T22:16:02.000Z,1015.381
2017-10-03T22:26:02.000Z,1015.336
2017-10-03T22:36:02.000Z,1015.315
2017-10-03T22:46:02.000Z,1015.393
2017-10-03T22:56:02.000Z,1015.364
2017-10-03T23:06:02.000Z,1015.382
2017-10-03T23:16:02.000Z,1015.181
2017-10-03T23:26:02.000Z,1015.124
2017-10-03T23:36:02.000Z,1015.081
2017-10-03T23:46:02.000Z,1015.046
2017-10-03T23:56:02.000Z,1015.101
